Terminal Aerodrome Forecast
Issued by NWS

Home | Current Version | Previous Version | Graphics & Text | Print | Product List | Glossary On
Versions: 1 2 3 4 5 6 7 8 9 10 11 12 13 14 15 16 17 18
000
FTUS41 KCLE 210300 AAB
TAFFDY
TAF AMD
KFDY 210312Z 2103/2124 19009KT P6SM SCT045 BKN200
      TEMPO 2105/2109 3SM -TSRA BKN030CB
     FM210900 23010KT 6SM BR VCSH SCT008 BKN020
      TEMPO 2109/2113 3SM -SHRA BR BKN008
     FM211500 28012KT P6SM BKN025
     FM211900 30016G24KT P6SM VCSH BKN035=

USA.gov is the U.S. government's official web portal to all federal, state and local government web resources and services.